Terminal Aerodrome Forecast
Issued by NWS Binghamton, NY

Home | Current Version | Previous Version | Text Only | Print | Product List | Glossary On
Versions: 1 2 3 4 5 6 7 8 9 10 11 12 13 14 15 16 17 18 19 20 21 22 23 24 25 26
000
FTUS41 KBGM 250800 AAB
TAFAVP
TAF AMD
KAVP 250844Z 2509/2606 24015G28KT P6SM -SHRA SCT030 OVC040
     FM251000 26018G30KT P6SM BKN040
     FM251400 27015G25KT P6SM BKN030
     FM252100 27013KT P6SM BKN040
     FM260100 28010KT P6SM SCT040=

USA.gov is the U.S. government's official web portal to all federal, state and local government web resources and services.